Time;durP1;ratioP1;P1;durP2;ratioP2;P2;SDS_P1;SDS_P2;PMS_P1;PMS_P2;Temp;Humidity;BMP_temperature;BMP_pressure;BME280_temperature;BME280_humidity;BME280_pressure;Samples;Min_cycle;Max_cycle;Signal;HPM_P1;HPM_P2
2022/06/29 00:00:19;;;;;;;5.83;5.20;;;17.20;99.90;;;;;;5076638;28;20192;-68
2022/06/29 00:02:45;;;;;;;7.40;5.47;;;17.10;99.90;;;;;;5091248;28;20177;-68
2022/06/29 00:05:16;;;;;;;7.73;7.13;;;17.00;99.90;;;;;;5075612;28;20202;-68
2022/06/29 00:07:42;;;;;;;6.90;5.57;;;16.90;99.90;;;;;;5069765;28;20182;-68
2022/06/29 00:10:10;;;;;;;5.87;5.47;;;16.90;99.90;;;;;;5072884;28;20177;-68
2022/06/29 00:12:36;;;;;;;6.23;5.63;;;16.80;99.90;;;;;;5090866;28;20572;-68
2022/06/29 00:15:02;;;;;;;5.60;5.20;;;16.70;99.90;;;;;;5073267;28;20694;-68
2022/06/29 00:17:32;;;;;;;5.93;5.53;;;16.70;99.90;;;;;;5069588;28;20182;-68
2022/06/29 00:19:58;;;;;;;6.47;5.77;;;16.70;99.90;;;;;;5084087;28;20656;-68
2022/06/29 00:22:24;;;;;;;5.57;5.17;;;16.60;99.90;;;;;;5071553;28;20178;-68
2022/06/29 00:24:50;;;;;;;6.23;5.83;;;16.60;99.90;;;;;;5070012;28;20217;-68
2022/06/29 00:27:16;;;;;;;5.90;5.40;;;16.70;99.90;;;;;;5072318;28;20182;-68
2022/06/29 00:29:42;;;;;;;6.20;5.80;;;16.60;99.90;;;;;;5088257;28;20272;-68
2022/06/29 00:32:08;;;;;;;5.87;5.47;;;16.60;99.90;;;;;;5093212;28;20675;-68
2022/06/29 00:34:34;;;;;;;7.70;5.53;;;16.60;99.90;;;;;;5080384;28;20297;-68
2022/06/29 00:37:00;;;;;;;6.10;5.70;;;16.60;99.90;;;;;;5077543;28;20190;-68
2022/06/29 00:39:26;;;;;;;6.30;5.80;;;16.50;99.90;;;;;;5073058;28;20201;-68
2022/06/29 00:41:52;;;;;;;5.97;5.50;;;16.50;99.90;;;;;;5072915;28;20679;-68
2022/06/29 00:44:20;;;;;;;6.50;5.87;;;16.50;99.90;;;;;;5085511;28;20209;-68
2022/06/29 00:46:47;;;;;;;6.20;5.70;;;16.50;99.90;;;;;;5093251;28;20182;-68
2022/06/29 00:49:15;;;;;;;6.13;5.63;;;16.40;99.90;;;;;;5083012;28;20214;-68
2022/06/29 00:51:45;;;;;;;7.33;5.73;;;16.40;99.90;;;;;;5072800;28;20213;-67
2022/06/29 00:54:17;;;;;;;6.50;5.50;;;16.40;99.90;;;;;;5082353;28;20575;-68
2022/06/29 00:56:43;;;;;;;5.83;5.33;;;16.40;99.90;;;;;;5094331;28;20209;-67
2022/06/29 00:59:12;;;;;;;7.13;5.83;;;16.30;99.90;;;;;;5083616;28;20216;-68
2022/06/29 01:01:39;;;;;;;5.40;5.07;;;16.30;99.90;;;;;;5074071;28;20236;-68
2022/06/29 01:04:04;;;;;;;6.20;5.60;;;16.20;99.90;;;;;;5080973;28;20567;-69
2022/06/29 01:06:30;;;;;;;6.63;5.80;;;16.20;99.90;;;;;;5093852;28;20169;-68
2022/06/29 01:08:56;;;;;;;6.57;6.10;;;16.20;99.90;;;;;;5077839;28;20960;-68
2022/06/29 01:11:21;;;;;;;6.70;6.10;;;16.20;99.90;;;;;;5073513;28;20615;-67
2022/06/29 01:13:48;;;;;;;6.83;6.23;;;16.30;99.90;;;;;;5084686;28;20247;-68
2022/06/29 01:16:13;;;;;;;6.27;5.80;;;16.20;99.90;;;;;;5093857;28;20176;-68
2022/06/29 01:18:39;;;;;;;5.90;5.60;;;16.30;99.90;;;;;;5083720;28;20634;-68
2022/06/29 01:21:08;;;;;;;6.27;5.87;;;16.30;99.90;;;;;;5073572;28;20223;-68
2022/06/29 01:23:34;;;;;;;6.30;5.80;;;16.30;99.90;;;;;;5081398;28;20322;-68
2022/06/29 01:26:07;;;;;;;6.37;5.30;;;16.30;99.90;;;;;;5093865;28;20181;-68
2022/06/29 01:28:33;;;;;;;6.30;5.90;;;16.30;99.90;;;;;;5085531;28;20536;-68
2022/06/29 01:31:00;;;;;;;7.67;6.47;;;16.30;99.90;;;;;;5073682;28;20555;-69
2022/06/29 01:33:26;;;;;;;6.83;6.37;;;16.30;99.90;;;;;;5074144;28;20713;-68
2022/06/29 01:35:51;;;;;;;6.53;6.03;;;16.20;99.90;;;;;;5073255;28;20220;-68
2022/06/29 01:38:20;;;;;;;6.43;5.93;;;16.10;99.90;;;;;;5081052;28;20655;-68
2022/06/29 01:40:46;;;;;;;6.60;6.10;;;16.10;99.90;;;;;;5092329;28;20217;-68
2022/06/29 01:43:11;;;;;;;6.10;5.70;;;16.10;99.90;;;;;;5070873;28;20673;-68
2022/06/29 01:45:37;;;;;;;6.27;5.80;;;16.00;99.90;;;;;;5071600;28;20307;-67
2022/06/29 01:48:03;;;;;;;6.83;6.10;;;16.00;99.90;;;;;;5078552;28;20557;-69
2022/06/29 01:50:29;;;;;;;5.83;5.27;;;16.00;99.90;;;;;;5093021;28;20650;-69
2022/06/29 01:52:55;;;;;;;6.40;5.90;;;15.90;99.90;;;;;;5087562;28;20189;-68
2022/06/29 01:55:20;;;;;;;5.97;5.47;;;15.90;99.90;;;;;;5072458;28;20189;-68
2022/06/29 01:57:47;;;;;;;6.60;6.20;;;15.80;99.90;;;;;;5076273;28;20183;-69
2022/06/29 02:00:13;;;;;;;6.53;6.03;;;15.80;99.90;;;;;;5092921;28;20173;-68
2022/06/29 02:02:39;;;;;;;6.33;5.93;;;15.80;99.90;;;;;;5082474;28;20280;-68
2022/06/29 02:05:04;;;;;;;6.27;5.50;;;15.80;99.90;;;;;;5072378;28;20273;-67
2022/06/29 02:07:30;;;;;;;6.63;6.13;;;15.80;99.90;;;;;;5088885;28;20243;-68
2022/06/29 02:09:56;;;;;;;6.13;5.83;;;15.80;99.90;;;;;;5092930;28;20223;-68
2022/06/29 02:12:21;;;;;;;6.03;5.60;;;15.70;99.90;;;;;;5074694;28;20209;-68
2022/06/29 02:14:47;;;;;;;7.77;6.10;;;15.60;99.90;;;;;;5068226;28;20623;-68
2022/06/29 02:17:13;;;;;;;6.50;6.10;;;15.60;99.90;;;;;;5086648;28;20219;-67
2022/06/29 02:19:39;;;;;;;6.30;5.90;;;15.50;99.90;;;;;;5092822;28;20170;-68
2022/06/29 02:22:05;;;;;;;6.33;5.93;;;15.60;99.90;;;;;;5078496;28;20251;-69
2022/06/29 02:24:30;;;;;;;6.87;6.23;;;15.60;99.90;;;;;;5071637;28;20221;-69
2022/06/29 02:26:56;;;;;;;9.27;5.97;;;15.70;99.90;;;;;;5083052;28;20189;-68
2022/06/29 02:29:21;;;;;;;7.10;6.60;;;15.70;99.90;;;;;;5092331;28;20182;-67
2022/06/29 02:34:43;;;;;;;7.13;6.73;;;15.80;99.90;;;;;;5071567;28;20207;-68
2022/06/29 02:37:10;;;;;;;7.07;6.67;;;15.90;99.90;;;;;;5082246;28;20220;-68
2022/06/29 02:39:38;;;;;;;6.17;5.53;;;15.90;99.90;;;;;;5091177;28;20178;-68
2022/06/29 02:42:04;;;;;;;5.83;5.17;;;15.90;99.90;;;;;;5085412;28;20178;-67
2022/06/29 02:44:30;;;;;;;6.13;5.53;;;15.80;99.90;;;;;;5071304;28;20210;-68
2022/06/29 02:46:55;;;;;;;7.27;5.60;;;15.80;99.90;;;;;;5069216;28;20631;-67
2022/06/29 02:49:21;;;;;;;6.00;5.60;;;15.80;99.90;;;;;;5072128;28;20548;-68
2022/06/29 02:51:47;;;;;;;7.33;6.30;;;15.70;99.90;;;;;;5077673;28;20589;-68
2022/06/29 02:54:12;;;;;;;6.40;5.80;;;15.60;99.90;;;;;;5090320;28;20651;-68
2022/06/29 02:56:38;;;;;;;6.20;5.80;;;15.60;99.90;;;;;;5079543;28;20618;-68
2022/06/29 02:59:04;;;;;;;7.37;5.90;;;15.60;99.90;;;;;;5071767;28;20184;-67
2022/06/29 03:01:30;;;;;;;7.03;6.43;;;15.60;99.90;;;;;;5079066;28;20184;-68
2022/06/29 03:03:55;;;;;;;6.17;5.77;;;15.60;99.90;;;;;;5085682;28;20279;-68
2022/06/29 03:06:21;;;;;;;6.43;5.87;;;15.60;99.90;;;;;;5071537;28;20220;-68
2022/06/29 03:08:46;;;;;;;6.17;5.77;;;15.50;99.90;;;;;;5075272;28;20463;-68
2022/06/29 03:11:12;;;;;;;6.20;5.80;;;15.50;99.90;;;;;;5091702;28;20658;-67
2022/06/29 03:13:38;;;;;;;6.77;6.27;;;15.50;99.90;;;;;;5088944;28;20193;-68
2022/06/29 03:16:03;;;;;;;6.70;6.20;;;15.50;99.90;;;;;;5070244;28;20544;-68
2022/06/29 03:18:29;;;;;;;5.93;5.63;;;15.50;99.90;;;;;;5069840;28;20692;-68
2022/06/29 03:20:55;;;;;;;9.10;7.07;;;15.40;99.90;;;;;;5065346;28;20218;-68
2022/06/29 03:23:20;;;;;;;6.30;5.93;;;15.40;99.90;;;;;;5049618;28;20664;-68
2022/06/29 03:25:46;;;;;;;8.43;6.70;;;15.30;99.90;;;;;;5070717;28;20194;-68
2022/06/29 03:28:12;;;;;;;6.63;6.23;;;15.30;99.90;;;;;;5075256;28;20180;-67
2022/06/29 03:30:37;;;;;;;8.07;6.67;;;15.30;99.90;;;;;;5091468;28;20192;-67
2022/06/29 03:33:03;;;;;;;6.67;6.20;;;15.30;99.90;;;;;;5087549;28;20181;-68
2022/06/29 03:35:29;;;;;;;6.80;6.37;;;15.30;99.90;;;;;;5070768;28;20559;-68
2022/06/29 03:37:54;;;;;;;7.20;6.67;;;15.30;99.90;;;;;;5073095;28;20628;-68
2022/06/29 03:40:20;;;;;;;6.53;6.10;;;15.30;99.90;;;;;;5091267;28;20642;-68
2022/06/29 03:42:46;;;;;;;6.60;6.20;;;15.30;99.90;;;;;;5084487;28;20178;-67
2022/06/29 03:45:11;;;;;;;7.03;6.53;;;15.30;99.90;;;;;;5070898;28;20248;-67
2022/06/29 03:47:39;;;;;;;6.73;6.33;;;15.30;99.90;;;;;;5090218;28;20540;-67
2022/06/29 03:50:08;;;;;;;7.33;6.63;;;15.30;99.90;;;;;;5090045;28;20177;-68
2022/06/29 03:52:34;;;;;;;6.27;5.70;;;15.40;99.90;;;;;;5069868;28;20638;-68
2022/06/29 03:54:59;;;;;;;7.93;5.90;;;15.50;99.90;;;;;;5069514;28;20225;-68
2022/06/29 03:57:25;;;;;;;6.60;6.10;;;15.60;99.90;;;;;;5087093;28;20177;-68
2022/06/29 03:59:50;;;;;;;6.03;5.63;;;15.70;99.90;;;;;;5086228;28;20181;-68
2022/06/29 04:02:16;;;;;;;6.97;6.37;;;15.70;99.90;;;;;;5072494;28;20170;-68
2022/06/29 04:04:42;;;;;;;6.90;6.07;;;15.80;99.90;;;;;;5077659;28;20197;-68
2022/06/29 04:07:07;;;;;;;10.70;6.57;;;15.90;99.90;;;;;;5095315;28;20177;-68
2022/06/29 04:09:33;;;;;;;5.90;5.50;;;15.90;99.90;;;;;;5093455;28;20185;-68
2022/06/29 04:11:59;;;;;;;8.20;5.43;;;16.00;99.90;;;;;;5073551;28;20255;-67
2022/06/29 04:14:26;;;;;;;5.73;5.33;;;16.10;99.90;;;;;;5074459;28;20189;-67
2022/06/29 04:16:52;;;;;;;6.33;5.77;;;16.20;99.90;;;;;;5093510;28;20170;-67
2022/06/29 04:19:18;;;;;;;8.73;6.10;;;16.20;99.90;;;;;;5091627;28;20218;-68
2022/06/29 04:21:44;;;;;;;6.03;5.63;;;16.20;99.90;;;;;;5094786;28;20260;-68
2022/06/29 04:24:10;;;;;;;7.23;5.80;;;16.10;99.90;;;;;;5081022;28;20217;-68
2022/06/29 04:26:35;;;;;;;5.90;5.47;;;16.10;99.90;;;;;;5074490;28;20182;-68
2022/06/29 04:29:01;;;;;;;7.13;6.40;;;16.10;99.90;;;;;;5076084;28;20256;-68
2022/06/29 04:31:27;;;;;;;7.03;5.93;;;16.10;99.90;;;;;;5093296;28;20197;-68
2022/06/29 04:33:53;;;;;;;6.67;6.17;;;16.10;99.90;;;;;;5091451;28;20197;-68
2022/06/29 04:36:18;;;;;;;7.13;6.53;;;16.20;99.90;;;;;;5072939;28;20681;-68
2022/06/29 04:38:45;;;;;;;6.50;6.00;;;16.30;99.90;;;;;;5073111;28;20265;-68
2022/06/29 04:41:10;;;;;;;6.73;6.23;;;16.50;99.90;;;;;;5093168;28;20203;-68
2022/06/29 04:43:36;;;;;;;6.77;6.03;;;16.60;99.90;;;;;;5089556;28;20219;-68
2022/06/29 04:46:19;;;;;;;5.90;5.53;;;16.60;99.90;;;;;;5089871;28;20208;-68
2022/06/29 04:48:46;;;;;;;6.70;6.30;;;16.60;99.90;;;;;;5090504;28;20224;-68
2022/06/29 04:51:12;;;;;;;6.00;5.60;;;16.80;99.90;;;;;;5073954;28;20217;-68
2022/06/29 04:53:38;;;;;;;8.47;6.00;;;17.00;99.90;;;;;;5074223;28;20233;-68
2022/06/29 04:56:04;;;;;;;6.37;5.90;;;17.20;99.90;;;;;;5085352;28;20536;-68
2022/06/29 04:58:29;;;;;;;6.40;5.90;;;17.40;99.90;;;;;;5072585;28;20201;-68
2022/06/29 05:00:55;;;;;;;6.77;6.23;;;17.50;99.90;;;;;;5094491;28;20193;-68
2022/06/29 05:03:21;;;;;;;6.33;5.80;;;17.70;99.90;;;;;;5084846;28;20189;-68
2022/06/29 05:05:49;;;;;;;6.10;5.70;;;17.80;99.90;;;;;;5072561;28;20202;-68
2022/06/29 05:08:15;;;;;;;6.00;5.50;;;17.90;99.90;;;;;;5080918;28;20177;-68
2022/06/29 05:10:44;;;;;;;6.87;6.27;;;18.00;99.90;;;;;;5094027;28;20170;-68
2022/06/29 05:13:10;;;;;;;9.90;6.47;;;18.20;99.90;;;;;;5085132;28;20196;-68
2022/06/29 05:15:39;;;;;;;7.87;5.20;;;18.40;99.90;;;;;;5073441;28;20173;-68
2022/06/29 05:18:05;;;;;;;5.90;5.53;;;18.50;99.90;;;;;;5082348;28;20202;-68
2022/06/29 05:20:31;;;;;;;6.73;6.20;;;18.60;99.90;;;;;;5093581;28;20162;-68
2022/06/29 05:22:57;;;;;;;7.07;6.27;;;18.80;99.90;;;;;;5083666;28;20193;-68
2022/06/29 05:25:23;;;;;;;7.03;6.50;;;18.90;99.90;;;;;;5073068;28;20198;-68
2022/06/29 05:27:48;;;;;;;6.27;5.83;;;19.10;99.90;;;;;;5073906;28;20290;-68
2022/06/29 05:30:14;;;;;;;5.87;5.37;;;19.10;99.90;;;;;;5074244;28;20174;-68
2022/06/29 05:32:41;;;;;;;7.20;6.37;;;19.10;99.90;;;;;;5093529;28;20696;-68
2022/06/29 05:35:07;;;;;;;8.57;5.57;;;19.00;99.90;;;;;;5090649;28;20204;-68
2022/06/29 05:37:32;;;;;;;7.87;5.80;;;18.90;99.90;;;;;;5080173;28;20178;-68
2022/06/29 05:39:58;;;;;;;5.63;5.23;;;18.70;99.90;;;;;;5071930;28;20177;-68
2022/06/29 05:42:24;;;;;;;6.37;5.87;;;18.70;99.90;;;;;;5071509;28;20200;-68
2022/06/29 05:44:49;;;;;;;7.10;6.50;;;18.70;99.90;;;;;;5072919;28;20695;-68
2022/06/29 05:47:15;;;;;;;6.60;5.53;;;18.90;99.90;;;;;;5073049;28;20628;-68
2022/06/29 05:49:41;;;;;;;8.50;6.47;;;19.00;99.90;;;;;;5077901;28;20261;-68
2022/06/29 05:52:07;;;;;;;7.53;6.93;;;19.00;99.90;;;;;;5093299;28;20197;-68
2022/06/29 05:54:33;;;;;;;7.70;7.00;;;19.00;99.90;;;;;;5085056;28;20201;-68
2022/06/29 05:56:59;;;;;;;6.60;6.00;;;19.00;99.90;;;;;;5074849;28;20177;-68
2022/06/29 05:59:24;;;;;;;9.03;6.53;;;19.10;99.90;;;;;;5093041;28;20192;-68
2022/06/29 06:01:50;;;;;;;7.93;7.17;;;19.10;99.90;;;;;;5078682;28;20178;-68
2022/06/29 06:04:15;;;;;;;8.03;7.03;;;19.10;99.90;;;;;;5070959;28;20194;-68
2022/06/29 06:06:41;;;;;;;6.67;6.20;;;19.10;99.90;;;;;;5083863;28;20192;-68
2022/06/29 06:09:07;;;;;;;8.03;6.57;;;19.10;99.90;;;;;;5092945;28;20188;-68
2022/06/29 06:11:33;;;;;;;7.97;7.27;;;19.20;99.90;;;;;;5081579;28;20221;-68
2022/06/29 06:13:59;;;;;;;8.90;6.87;;;19.40;99.90;;;;;;5072349;28;20306;-68
2022/06/29 06:16:24;;;;;;;7.77;7.23;;;19.50;99.90;;;;;;5078662;28;20268;-68
2022/06/29 06:18:50;;;;;;;7.47;6.87;;;19.60;99.90;;;;;;5092100;28;20170;-68
2022/06/29 06:21:16;;;;;;;7.10;6.50;;;19.80;99.90;;;;;;5086560;28;20178;-68
2022/06/29 06:23:41;;;;;;;8.93;8.23;;;20.00;99.90;;;;;;5072104;28;20198;-68
2022/06/29 06:26:10;;;;;;;6.80;6.20;;;20.10;99.90;;;;;;5082457;28;20177;-68
2022/06/29 06:28:35;;;;;;;7.40;6.90;;;20.30;99.90;;;;;;5092362;28;20174;-68
2022/06/29 06:31:01;;;;;;;6.70;6.07;;;20.40;99.90;;;;;;5087854;28;20686;-68
2022/06/29 06:33:27;;;;;;;6.77;6.03;;;20.50;99.90;;;;;;5090017;28;20190;-68
2022/06/29 06:35:52;;;;;;;6.73;6.20;;;20.50;99.90;;;;;;5084944;28;20174;-68
2022/06/29 06:38:18;;;;;;;8.27;7.57;;;20.50;99.90;;;;;;5071936;28;20170;-68
2022/06/29 06:43:28;;;;;;;9.63;8.93;;;20.40;99.90;;;;;;5091777;28;20247;-68
2022/06/29 06:45:54;;;;;;;9.53;8.73;;;20.50;99.90;;;;;;5088453;28;20651;-68
2022/06/29 06:48:19;;;;;;;8.10;7.30;;;20.40;99.90;;;;;;5071665;28;20381;-68
2022/06/29 06:50:45;;;;;;;7.93;7.33;;;20.30;99.90;;;;;;5071985;28;20178;-68
2022/06/29 06:53:10;;;;;;;10.13;7.03;;;20.20;99.90;;;;;;5071861;28;20190;-68
2022/06/29 06:55:36;;;;;;;7.07;6.37;;;20.10;99.90;;;;;;5070321;28;20669;-68
2022/06/29 06:58:02;;;;;;;6.73;6.13;;;20.00;99.90;;;;;;5070711;28;20201;-68
2022/06/29 07:00:28;;;;;;;6.47;5.87;;;20.00;99.90;;;;;;5072761;28;20532;-68
2022/06/29 07:02:54;;;;;;;7.93;7.20;;;19.90;99.90;;;;;;5091870;28;20204;-68
2022/06/29 07:05:20;;;;;;;7.33;6.63;;;19.90;99.90;;;;;;5083922;28;20178;-68
2022/06/29 07:07:46;;;;;;;7.00;6.40;;;19.90;99.90;;;;;;5091068;28;20185;-68
2022/06/29 07:10:11;;;;;;;9.03;7.40;;;19.90;99.90;;;;;;5090515;28;20181;-68
2022/06/29 07:12:37;;;;;;;8.70;8.10;;;20.00;99.90;;;;;;5073103;28;20244;-68
2022/06/29 07:15:04;;;;;;;8.20;6.77;;;20.00;99.90;;;;;;5071521;28;20205;-68
2022/06/29 07:17:29;;;;;;;11.77;10.97;;;20.00;99.90;;;;;;5086511;28;20234;-68
2022/06/29 07:19:55;;;;;;;12.47;11.47;;;20.10;99.90;;;;;;5091860;28;20185;-68
2022/06/29 07:22:21;;;;;;;6.90;6.33;;;20.10;99.90;;;;;;5075352;28;20181;-68
2022/06/29 07:24:46;;;;;;;7.03;5.97;;;20.20;99.90;;;;;;5071283;28;20257;-68
2022/06/29 07:27:12;;;;;;;7.23;6.70;;;20.30;99.90;;;;;;5084403;28;20181;-68
2022/06/29 07:29:38;;;;;;;6.20;5.63;;;20.30;99.90;;;;;;5091891;28;20185;-68
2022/06/29 07:32:04;;;;;;;14.37;13.00;;;20.40;99.90;;;;;;5079907;28;20202;-69
2022/06/29 07:34:30;;;;;;;22.33;21.07;;;20.50;99.90;;;;;;5074690;28;20223;-68
2022/06/29 07:36:55;;;;;;;7.90;7.20;;;20.50;99.90;;;;;;5090830;28;20548;-69
2022/06/29 07:39:21;;;;;;;9.07;6.60;;;20.70;99.90;;;;;;5087581;28;20182;-69
2022/06/29 07:41:47;;;;;;;8.40;7.77;;;20.70;99.90;;;;;;5071560;28;20186;-69
2022/06/29 07:44:12;;;;;;;8.43;7.63;;;20.80;99.90;;;;;;5070112;28;20255;-68
2022/06/29 07:46:38;;;;;;;7.97;7.13;;;20.90;99.90;;;;;;5090054;28;20205;-68
2022/06/29 07:49:03;;;;;;;6.67;6.17;;;20.90;99.90;;;;;;5078301;28;20225;-68
2022/06/29 07:51:29;;;;;;;6.03;5.43;;;21.10;99.90;;;;;;5089954;28;20197;-68
2022/06/29 07:53:55;;;;;;;7.73;7.07;;;21.30;99.90;;;;;;5091020;28;20235;-68
2022/06/29 07:56:20;;;;;;;9.87;5.90;;;21.30;99.90;;;;;;5073533;28;20248;-68
2022/06/29 07:58:46;;;;;;;6.20;5.60;;;21.40;99.90;;;;;;5073003;28;20253;-68
2022/06/29 08:01:12;;;;;;;6.43;5.57;;;21.40;99.90;;;;;;5089798;28;20696;-68
2022/06/29 08:03:38;;;;;;;6.43;5.80;;;21.40;99.90;;;;;;5089108;28;20305;-69
2022/06/29 08:06:05;;;;;;;6.13;5.53;;;21.40;99.90;;;;;;5069325;28;20726;-68
2022/06/29 08:08:31;;;;;;;8.27;7.60;;;21.50;99.90;;;;;;5079765;28;20173;-68
2022/06/29 08:10:57;;;;;;;8.20;5.97;;;21.60;99.90;;;;;;5070782;28;20178;-68
2022/06/29 08:13:23;;;;;;;8.03;7.33;;;21.60;99.90;;;;;;5075540;28;20197;-68
2022/06/29 08:15:49;;;;;;;6.03;5.43;;;21.60;99.90;;;;;;5074151;28;20176;-68
2022/06/29 08:18:15;;;;;;;8.33;5.77;;;21.60;99.90;;;;;;5071414;28;20689;-69
2022/06/29 08:20:42;;;;;;;6.70;5.90;;;21.60;99.90;;;;;;5070927;28;20201;-68
2022/06/29 08:23:08;;;;;;;6.27;5.47;;;21.70;99.90;;;;;;5070836;28;20631;-68
2022/06/29 08:25:34;;;;;;;6.13;5.63;;;21.80;99.90;;;;;;5070513;28;20223;-67
2022/06/29 08:28:01;;;;;;;11.07;6.80;;;21.80;99.90;;;;;;5069601;28;20177;-67
2022/06/29 08:30:27;;;;;;;7.80;6.00;;;21.80;99.90;;;;;;5070595;28;20162;-68
2022/06/29 08:32:53;;;;;;;5.67;5.17;;;21.80;99.90;;;;;;5070878;28;20217;-68
2022/06/29 08:35:19;;;;;;;9.47;5.70;;;21.80;99.90;;;;;;5079712;28;20271;-68
2022/06/29 08:37:46;;;;;;;5.72;5.38;;;21.70;99.90;;;;;;5091001;28;20193;-68
2022/06/29 08:40:14;;;;;;;7.55;5.40;;;21.70;99.90;;;;;;5081060;28;20166;-69
2022/06/29 08:42:40;;;;;;;6.60;5.03;;;21.70;99.90;;;;;;5070372;28;20178;-68
2022/06/29 08:45:07;;;;;;;4.90;4.47;;;21.70;99.90;;;;;;5077970;28;20209;-69
2022/06/29 08:47:33;;;;;;;8.07;5.72;;;21.60;99.90;;;;;;5091238;28;20257;-68
2022/06/29 08:50:03;;;;;;;5.50;4.90;;;21.60;99.90;;;;;;5086748;28;20268;-68
2022/06/29 08:52:28;;;;;;;5.30;5.00;;;21.60;99.90;;;;;;5073942;28;20251;-68
2022/06/29 08:54:54;;;;;;;5.82;5.30;;;21.70;99.90;;;;;;5081190;28;20193;-68
2022/06/29 08:57:23;;;;;;;5.65;5.07;;;21.70;99.90;;;;;;5085448;28;20184;-68
2022/06/29 08:59:52;;;;;;;5.00;4.70;;;21.70;99.90;;;;;;5093488;28;20177;-68
2022/06/29 09:02:18;;;;;;;5.85;5.45;;;21.90;99.90;;;;;;5082323;28;20294;-67
2022/06/29 09:04:43;;;;;;;5.40;5.10;;;21.90;99.90;;;;;;5073122;28;20198;-67
2022/06/29 09:07:09;;;;;;;5.37;4.70;;;21.90;99.90;;;;;;5081157;28;20174;-67
2022/06/29 09:09:57;;;;;;;7.70;5.15;;;22.00;99.90;;;;;;5086888;28;20194;-67
2022/06/29 09:12:23;;;;;;;9.30;5.63;;;22.20;99.90;;;;;;5073603;28;20201;-67
2022/06/29 09:14:49;;;;;;;5.60;5.10;;;22.20;99.90;;;;;;5080537;28;20194;-67
2022/06/29 09:17:17;;;;;;;6.38;5.05;;;22.20;99.90;;;;;;5092515;28;20223;-67
2022/06/29 09:19:46;;;;;;;5.72;5.30;;;22.20;99.90;;;;;;5082192;28;20194;-67
2022/06/29 09:22:12;;;;;;;5.55;5.00;;;22.10;99.90;;;;;;5072159;28;20213;-67
2022/06/29 09:24:38;;;;;;;7.90;4.40;;;22.30;99.90;;;;;;5082615;28;20220;-67
2022/06/29 09:27:09;;;;;;;4.85;4.45;;;22.30;99.90;;;;;;5092416;28;20170;-68
2022/06/29 09:29:39;;;;;;;4.53;4.22;;;22.50;99.90;;;;;;5082056;28;20531;-67
2022/06/29 09:32:05;;;;;;;5.72;4.30;;;22.80;99.90;;;;;;5072934;28;20205;-67
2022/06/29 09:34:31;;;;;;;5.15;4.38;;;23.00;99.90;;;;;;5078787;28;20250;-68
2022/06/29 09:36:59;;;;;;;4.65;4.25;;;23.10;99.90;;;;;;5093393;28;20188;-67
2022/06/29 09:39:45;;;;;;;4.45;4.07;;;23.20;99.90;;;;;;5087355;28;20173;-67
2022/06/29 09:42:15;;;;;;;4.95;4.43;;;23.40;99.90;;;;;;5073355;28;20540;-67
2022/06/29 09:44:42;;;;;;;7.40;4.00;;;23.60;99.90;;;;;;5087799;28;20197;-68
2022/06/29 09:47:12;;;;;;;4.93;4.18;;;23.80;99.90;;;;;;5092577;28;20178;-67
2022/06/29 09:49:38;;;;;;;5.57;3.72;;;24.00;99.90;;;;;;5078746;28;20243;-68
2022/06/29 09:52:06;;;;;;;4.32;3.92;;;24.40;99.90;;;;;;5072930;28;20205;-68
2022/06/29 09:54:40;;;;;;;3.97;3.70;;;25.10;99.90;;;;;;5081929;28;20261;-68
2022/06/29 09:57:07;;;;;;;7.18;4.45;;;26.00;99.90;;;;;;5093182;28;20177;-68
2022/06/29 10:02:40;;;;;;;5.03;4.00;;;27.50;99.90;;;;;;5064011;28;20203;-68
2022/06/29 10:05:13;;;;;;;4.18;3.85;;;27.70;99.90;;;;;;5088173;28;20189;-68
2022/06/29 10:07:44;;;;;;;4.50;4.10;;;28.20;99.90;;;;;;5082362;28;20180;-68
2022/06/29 10:10:12;;;;;;;6.70;4.03;;;28.60;99.90;;;;;;5072700;28;20253;-68
2022/06/29 10:15:47;;;;;;;4.07;3.28;;;29.10;99.90;;;;;;5092573;28;20271;-68
2022/06/29 10:18:19;;;;;;;3.85;3.55;;;29.50;99.90;;;;;;5078617;28;20190;-68
2022/06/29 10:20:47;;;;;;;4.65;3.53;;;29.70;99.90;;;;;;5072523;28;20291;-68
2022/06/29 10:26:37;;;;;;;5.55;4.03;;;30.80;99.90;;;;;;5075593;22;20303;-65
2022/06/29 10:29:06;;;;;;;3.72;3.42;;;31.00;99.90;;;;;;5071292;28;20210;-64
2022/06/29 10:31:50;;;;;;;4.63;4.03;;;30.70;99.90;;;;;;5067805;28;20194;-65
2022/06/29 10:36:59;;;;;;;3.63;3.13;;;31.10;99.90;;;;;;5045064;28;20450;-65
2022/06/29 10:39:25;;;;;;;7.03;3.58;;;31.90;99.90;;;;;;5032192;28;20652;-64
2022/06/29 10:44:54;;;;;;;4.53;2.70;;;32.90;99.90;;;;;;5046191;28;20253;-65
2022/06/29 10:47:23;;;;;;;4.07;3.63;;;33.70;99.90;;;;;;5027337;28;20189;-65
2022/06/29 10:49:49;;;;;;;4.45;3.10;;;33.70;99.90;;;;;;5021272;28;20172;-64
2022/06/29 10:52:15;;;;;;;3.22;3.03;;;33.30;99.90;;;;;;5035821;28;20207;-64
2022/06/29 10:54:41;;;;;;;3.45;3.13;;;33.10;99.90;;;;;;5031563;28;20243;-65
2022/06/29 10:57:06;;;;;;;3.40;3.10;;;33.40;99.90;;;;;;5032673;28;20171;-65
2022/06/29 10:59:33;;;;;;;3.28;2.83;;;33.80;99.90;;;;;;5050409;28;20584;-64
2022/06/29 11:02:13;;;;;;;4.88;3.15;;;33.90;99.90;;;;;;5051877;28;20259;-65
2022/06/29 11:04:39;;;;;;;3.25;2.95;;;34.40;99.90;;;;;;5011734;28;20564;-65
2022/06/29 11:12:48;;;;;;;5.00;3.42;;;33.80;99.30;;;;;;5015760;28;20368;-64
2022/06/29 11:15:40;;;;;;;3.42;3.13;;;33.60;98.50;;;;;;5031564;28;20597;-64
2022/06/29 11:18:12;;;;;;;3.53;3.20;;;33.40;97.80;;;;;;5038297;28;20526;-65
2022/06/29 11:20:39;;;;;;;3.70;3.28;;;32.90;99.90;;;;;;5051803;28;20179;-64
2022/06/29 11:23:12;;;;;;;5.60;4.00;;;32.50;97.70;;;;;;5041222;28;20290;-64
2022/06/29 11:25:39;;;;;;;4.07;3.72;;;31.80;99.10;;;;;;5031070;28;20233;-64
2022/06/29 11:28:06;;;;;;;4.18;3.78;;;31.20;99.90;;;;;;5032642;28;20198;-64
2022/06/29 11:30:31;;;;;;;4.18;3.83;;;30.90;99.90;;;;;;5031361;28;20241;-65
2022/06/29 11:32:57;;;;;;;4.22;3.83;;;30.50;99.90;;;;;;5041235;28;20508;-64
2022/06/29 11:35:25;;;;;;;3.70;3.40;;;30.00;99.90;;;;;;5051128;28;20226;-64
2022/06/29 11:38:01;;;;;;;4.47;4.18;;;29.70;99.90;;;;;;5042904;28;20175;-65
2022/06/29 11:40:40;;;;;;;3.50;3.30;;;30.10;99.90;;;;;;5031212;28;20171;-64
2022/06/29 11:43:14;;;;;;;6.65;4.10;;;30.50;99.90;;;;;;5040905;28;20179;-65
2022/06/29 11:45:46;;;;;;;3.88;3.58;;;31.60;99.90;;;;;;5050897;28;20193;-64
2022/06/29 11:48:17;;;;;;;3.90;3.60;;;32.30;99.90;;;;;;5037915;28;20526;-65
2022/06/29 11:50:43;;;;;;;4.20;3.80;;;32.70;99.90;;;;;;5031282;28;20174;-65
2022/06/29 11:53:09;;;;;;;3.60;3.35;;;33.10;99.90;;;;;;5046551;28;20285;-64
2022/06/29 11:55:39;;;;;;;3.40;3.10;;;33.40;98.40;;;;;;5050762;28;20541;-64
2022/06/29 11:58:08;;;;;;;3.70;3.40;;;33.70;97.70;;;;;;5036139;28;20179;-65
2022/06/29 12:00:39;;;;;;;4.20;3.80;;;33.70;99.90;;;;;;5029880;28;20188;-64
2022/06/29 12:03:06;;;;;;;8.57;4.80;;;33.80;99.90;;;;;;5045210;28;20179;-64
2022/06/29 12:05:31;;;;;;;3.55;3.25;;;33.70;99.90;;;;;;5051127;28;20190;-65
2022/06/29 12:07:57;;;;;;;3.75;3.25;;;33.80;96.90;;;;;;5036601;28;20671;-65
2022/06/29 12:10:22;;;;;;;3.85;3.55;;;33.60;98.10;;;;;;5030878;28;20538;-65
2022/06/29 12:12:48;;;;;;;7.53;3.53;;;33.50;99.90;;;;;;5041088;28;20237;-65
2022/06/29 12:15:14;;;;;;;4.05;3.30;;;33.60;99.90;;;;;;5050487;28;20187;-65
2022/06/29 12:17:40;;;;;;;3.60;3.30;;;33.40;97.60;;;;;;5047730;28;20174;-65
2022/06/29 12:20:06;;;;;;;4.60;3.67;;;33.40;97.60;;;;;;5051055;28;20179;-65
2022/06/29 12:22:34;;;;;;;3.80;3.60;;;33.10;99.90;;;;;;5036914;28;20191;-64
2022/06/29 12:25:00;;;;;;;7.15;3.80;;;32.70;99.10;;;;;;5034348;28;20222;-65
2022/06/29 12:27:27;;;;;;;3.83;3.50;;;33.00;99.90;;;;;;5047151;28;20182;-64
2022/06/29 12:29:52;;;;;;;3.60;3.30;;;33.30;98.90;;;;;;5054645;28;20655;-65
2022/06/29 12:32:18;;;;;;;4.18;3.30;;;33.40;97.70;;;;;;5043295;28;20210;-65
2022/06/29 12:34:44;;;;;;;3.25;2.95;;;33.50;97.80;;;;;;5034342;28;20198;-65
2022/06/29 12:37:10;;;;;;;4.57;2.90;;;33.70;99.90;;;;;;5043465;28;20197;-67
2022/06/29 12:39:36;;;;;;;3.35;3.15;;;33.90;95.30;;;;;;5054314;28;20229;-65
2022/06/29 12:42:03;;;;;;;3.30;3.10;;;34.10;94.30;;;;;;5043323;28;20184;-65
2022/06/29 12:44:29;;;;;;;3.88;3.00;;;34.10;94.60;;;;;;5033902;28;20195;-65
2022/06/29 12:46:54;;;;;;;3.28;3.08;;;34.40;94.20;;;;;;5043638;28;20549;-65
2022/06/29 12:49:20;;;;;;;3.10;2.90;;;34.40;93.20;;;;;;5054243;28;20190;-66
2022/06/29 12:51:46;;;;;;;3.45;3.15;;;34.40;97.10;;;;;;5039665;28;20218;-65
2022/06/29 12:54:12;;;;;;;3.00;2.80;;;34.50;94.90;;;;;;5033961;28;20711;-65
2022/06/29 12:56:38;;;;;;;3.35;3.10;;;34.90;94.10;;;;;;5035126;28;20193;-65
2022/06/29 12:59:04;;;;;;;3.45;3.15;;;35.00;95.50;;;;;;5034256;28;20171;-65
2022/06/29 13:01:30;;;;;;;3.15;2.92;;;35.10;95.40;;;;;;5044426;28;20264;-65
2022/06/29 13:03:55;;;;;;;2.90;2.75;;;35.30;94.10;;;;;;5053786;28;20648;-65
2022/06/29 13:06:21;;;;;;;3.15;2.80;;;35.40;94.10;;;;;;5043918;28;20258;-65
2022/06/29 13:08:46;;;;;;;3.67;3.00;;;35.30;93.90;;;;;;5033875;28;20179;-65